Time;durP1;ratioP1;P1;durP2;ratioP2;P2;SDS_P1;SDS_P2;PMS_P1;PMS_P2;Temp;Humidity;BMP_temperature;BMP_pressure;BME280_temperature;BME280_humidity;BME280_pressure;Samples;Min_cycle;Max_cycle;Signal;HPM_P1;HPM_P2
2022/11/26 00:01:10;;;;;;;12.33;6.80;;;7.20;99.90;;;;;;5115268;28;20569;-57
2022/11/26 00:03:37;;;;;;;8.17;5.70;;;7.10;99.90;;;;;;5115378;28;20521;-57
2022/11/26 00:06:05;;;;;;;8.80;6.77;;;7.10;99.90;;;;;;5115265;28;21015;-57
2022/11/26 00:08:35;;;;;;;15.63;6.87;;;7.10;99.90;;;;;;5115274;28;20924;-57
2022/11/26 00:11:03;;;;;;;12.73;8.03;;;7.20;99.90;;;;;;5115223;28;20870;-57
2022/11/26 00:13:31;;;;;;;13.97;7.63;;;7.20;99.90;;;;;;5115187;28;20525;-57
2022/11/26 00:16:00;;;;;;;11.80;8.23;;;7.10;99.90;;;;;;5115373;28;20873;-57
2022/11/26 00:18:27;;;;;;;8.17;6.37;;;7.10;99.90;;;;;;5114914;28;20979;-57
2022/11/26 00:20:56;;;;;;;12.17;7.23;;;6.90;99.90;;;;;;5113655;28;20525;-58
2022/11/26 00:23:26;;;;;;;10.57;7.00;;;6.90;99.90;;;;;;5115211;28;20474;-57
2022/11/26 00:25:56;;;;;;;9.80;6.37;;;7.00;99.90;;;;;;5115112;28;20505;-58
2022/11/26 00:28:32;;;;;;;11.27;6.13;;;7.00;99.90;;;;;;5114882;28;20495;-58
2022/11/26 00:31:02;;;;;;;10.57;5.87;;;6.90;99.90;;;;;;5114845;28;20513;-58
2022/11/26 00:33:30;;;;;;;13.33;6.53;;;7.00;99.90;;;;;;5115111;28;20518;-58
2022/11/26 00:36:01;;;;;;;15.63;5.23;;;7.00;99.90;;;;;;5114740;28;20899;-57
2022/11/26 00:38:31;;;;;;;7.43;6.33;;;7.00;99.90;;;;;;5115119;28;20467;-58
2022/11/26 00:40:58;;;;;;;10.73;4.97;;;7.00;99.90;;;;;;5114915;28;20571;-57
2022/11/26 00:43:25;;;;;;;8.50;5.43;;;7.00;99.90;;;;;;5114629;28;20443;-57
2022/11/26 00:45:53;;;;;;;6.97;5.40;;;7.20;99.90;;;;;;5114789;28;20503;-57
2022/11/26 00:48:21;;;;;;;16.80;4.83;;;7.20;99.90;;;;;;5114563;28;20479;-58
2022/11/26 00:50:51;;;;;;;5.90;5.10;;;7.20;99.90;;;;;;5114931;28;20997;-57
2022/11/26 00:53:22;;;;;;;11.57;5.30;;;7.20;99.90;;;;;;5114432;28;20446;-58
2022/11/26 00:55:50;;;;;;;9.87;4.83;;;7.20;99.90;;;;;;5114379;28;21036;-57
2022/11/26 00:58:23;;;;;;;8.47;4.60;;;7.20;99.90;;;;;;5114680;28;20481;-57
2022/11/26 01:00:51;;;;;;;7.73;4.57;;;7.20;99.90;;;;;;5114565;28;20546;-57
2022/11/26 01:03:19;;;;;;;12.27;4.23;;;7.30;99.90;;;;;;5114553;28;20527;-58
2022/11/26 01:05:50;;;;;;;7.20;4.27;;;7.40;99.90;;;;;;5114211;28;20466;-57
2022/11/26 01:08:26;;;;;;;7.80;4.93;;;7.30;99.90;;;;;;5114637;28;20427;-57
2022/11/26 01:10:53;;;;;;;3.90;3.30;;;7.40;99.90;;;;;;5114409;28;20427;-57
2022/11/26 01:13:20;;;;;;;12.70;5.20;;;7.50;99.90;;;;;;5114458;28;20529;-57
2022/11/26 01:15:48;;;;;;;6.50;3.90;;;7.50;99.90;;;;;;5114006;28;20514;-57
2022/11/26 01:18:17;;;;;;;6.60;3.90;;;7.50;99.90;;;;;;5114060;28;20541;-57
2022/11/26 01:20:47;;;;;;;9.33;4.60;;;7.50;99.90;;;;;;5113856;28;20487;-57
2022/11/26 01:23:17;;;;;;;6.77;3.87;;;7.60;99.90;;;;;;5114042;28;20479;-58
2022/11/26 01:25:45;;;;;;;7.93;4.07;;;7.60;99.90;;;;;;5113981;28;20550;-58
2022/11/26 01:28:14;;;;;;;11.60;4.60;;;7.50;99.90;;;;;;5113935;28;20952;-57
2022/11/26 01:30:46;;;;;;;3.80;3.50;;;7.60;99.90;;;;;;5114173;28;20442;-58
2022/11/26 01:33:13;;;;;;;10.33;4.80;;;7.60;99.90;;;;;;5113905;28;20442;-57
2022/11/26 01:35:40;;;;;;;10.23;4.40;;;7.60;99.90;;;;;;5114147;28;20516;-57
2022/11/26 01:38:13;;;;;;;11.87;5.17;;;7.70;99.90;;;;;;5113878;28;20486;-57
2022/11/26 01:40:54;;;;;;;4.60;3.60;;;7.70;99.90;;;;;;5114617;28;20466;-58
2022/11/26 01:43:27;;;;;;;7.47;4.67;;;7.50;99.90;;;;;;5113863;28;20901;-58
2022/11/26 01:45:56;;;;;;;8.10;5.13;;;7.60;99.90;;;;;;5113745;28;20972;-57
2022/11/26 01:48:31;;;;;;;6.83;4.13;;;7.60;99.90;;;;;;5114063;28;20545;-57
2022/11/26 01:51:05;;;;;;;8.43;4.43;;;7.60;99.90;;;;;;5114364;28;20446;-57
2022/11/26 01:53:45;;;;;;;12.30;4.83;;;7.60;99.90;;;;;;5113792;28;20462;-57
2022/11/26 01:56:18;;;;;;;10.77;3.93;;;7.70;99.90;;;;;;5113980;28;20553;-58
2022/11/26 01:58:50;;;;;;;6.73;4.50;;;7.60;99.90;;;;;;5114049;28;20476;-58
2022/11/26 02:01:19;;;;;;;5.63;4.23;;;7.70;99.90;;;;;;5113967;28;20470;-58
2022/11/26 02:03:55;;;;;;;8.77;4.40;;;7.70;99.90;;;;;;5114439;28;20865;-58
2022/11/26 02:06:26;;;;;;;8.93;4.07;;;7.80;99.90;;;;;;5113914;28;20515;-58
2022/11/26 02:08:56;;;;;;;9.27;4.50;;;7.80;99.90;;;;;;5113921;28;20451;-58
2022/11/26 02:11:24;;;;;;;10.50;5.50;;;7.80;99.90;;;;;;5114189;28;20521;-58
2022/11/26 02:13:55;;;;;;;9.73;6.17;;;7.80;99.90;;;;;;5113868;28;20482;-58
2022/11/26 02:16:37;;;;;;;7.23;5.70;;;7.80;99.90;;;;;;5113498;28;20545;-58
2022/11/26 02:19:30;;;;;;;14.40;5.53;;;7.80;99.90;;;;;;5114118;28;20458;-58
2022/11/26 02:22:03;;;;;;;11.43;5.77;;;7.80;99.90;;;;;;5116669;28;20995;-58
2022/11/26 02:24:48;;;;;;;10.13;6.27;;;7.70;99.90;;;;;;5117714;28;20522;-58
2022/11/26 02:27:56;;;;;;;10.30;5.30;;;7.70;99.90;;;;;;5117392;28;20429;-58
2022/11/26 02:30:26;;;;;;;10.40;5.00;;;7.70;99.90;;;;;;5114217;28;20869;-58
2022/11/26 02:32:59;;;;;;;11.00;5.53;;;7.70;99.90;;;;;;5117147;28;20446;-58
2022/11/26 02:35:34;;;;;;;8.83;5.93;;;7.70;99.90;;;;;;5117417;28;20466;-58
2022/11/26 02:38:06;;;;;;;10.10;6.50;;;7.70;99.90;;;;;;5117420;28;20461;-58
2022/11/26 02:40:33;;;;;;;7.80;5.73;;;7.60;99.90;;;;;;5117292;28;20466;-58
2022/11/26 02:43:01;;;;;;;9.23;6.23;;;7.60;99.90;;;;;;5116966;28;20541;-58
2022/11/26 02:45:33;;;;;;;9.40;5.27;;;7.60;99.90;;;;;;5116895;28;20471;-58
2022/11/26 02:48:03;;;;;;;9.53;5.27;;;7.60;99.90;;;;;;5116933;28;20426;-58
2022/11/26 02:50:35;;;;;;;10.57;5.97;;;7.60;99.90;;;;;;5117126;28;20542;-58
2022/11/26 02:53:03;;;;;;;13.33;5.40;;;7.60;99.90;;;;;;5117666;28;20521;-58
2022/11/26 02:55:33;;;;;;;7.40;5.87;;;7.60;99.90;;;;;;5116669;28;21055;-58
2022/11/26 02:58:01;;;;;;;7.30;5.17;;;7.50;99.90;;;;;;5117062;28;20431;-58
2022/11/26 03:00:31;;;;;;;11.47;4.03;;;7.50;99.90;;;;;;5116915;28;20482;-58
2022/11/26 03:03:02;;;;;;;7.83;6.37;;;7.60;99.90;;;;;;5116617;28;20478;-58
2022/11/26 03:05:34;;;;;;;6.57;4.67;;;7.50;99.90;;;;;;5116868;28;20549;-58
2022/11/26 03:08:05;;;;;;;17.00;4.60;;;7.60;99.90;;;;;;5116518;28;20517;-58
2022/11/26 03:10:32;;;;;;;8.27;5.13;;;7.60;99.90;;;;;;5116451;28;20479;-58
2022/11/26 03:12:59;;;;;;;6.67;4.80;;;7.60;99.90;;;;;;5116721;28;20493;-57
2022/11/26 03:15:28;;;;;;;7.53;4.93;;;7.70;99.90;;;;;;5116634;28;20515;-58
2022/11/26 03:17:56;;;;;;;6.43;4.40;;;7.70;99.90;;;;;;5116625;28;20471;-58
2022/11/26 03:20:24;;;;;;;6.03;4.87;;;7.70;99.90;;;;;;5116185;28;20573;-59
2022/11/26 03:22:51;;;;;;;7.77;4.87;;;7.70;99.90;;;;;;5116504;28;20469;-58
2022/11/26 03:25:18;;;;;;;9.03;5.63;;;7.70;99.90;;;;;;5116128;28;20466;-58
2022/11/26 03:27:46;;;;;;;8.40;4.57;;;7.70;99.90;;;;;;5116133;28;20928;-58
2022/11/26 03:30:13;;;;;;;11.00;5.53;;;7.70;99.90;;;;;;5115644;28;20446;-58
2022/11/26 03:32:41;;;;;;;14.10;5.90;;;7.70;99.90;;;;;;5116391;28;20537;-58
2022/11/26 03:35:10;;;;;;;5.47;4.97;;;7.70;99.90;;;;;;5115926;28;20495;-58
2022/11/26 03:37:37;;;;;;;10.50;6.60;;;7.70;99.90;;;;;;5115917;28;20482;-59
2022/11/26 03:40:05;;;;;;;7.07;5.03;;;7.60;99.90;;;;;;5115890;28;20529;-58
2022/11/26 03:42:33;;;;;;;7.73;5.70;;;7.60;99.90;;;;;;5116137;28;20896;-59
2022/11/26 03:45:00;;;;;;;7.27;5.70;;;7.60;99.90;;;;;;5116056;28;20890;-59
2022/11/26 03:47:27;;;;;;;8.93;6.03;;;7.60;99.90;;;;;;5116098;28;20520;-58
2022/11/26 03:49:54;;;;;;;6.73;4.90;;;7.60;99.90;;;;;;5115818;28;20531;-59
2022/11/26 03:52:23;;;;;;;10.87;5.57;;;7.60;99.90;;;;;;5115694;28;20521;-59
2022/11/26 03:54:50;;;;;;;7.20;5.50;;;7.60;99.90;;;;;;5115858;28;20614;-59
2022/11/26 03:57:17;;;;;;;6.20;5.00;;;7.50;99.90;;;;;;5115575;28;20941;-58
2022/11/26 03:59:45;;;;;;;7.80;5.50;;;7.50;99.90;;;;;;5115519;28;20881;-59
2022/11/26 04:02:12;;;;;;;14.23;4.87;;;7.50;99.90;;;;;;5115667;28;20565;-57
2022/11/26 04:04:39;;;;;;;11.67;6.60;;;7.40;99.90;;;;;;5115335;28;20533;-58
2022/11/26 04:07:06;;;;;;;12.73;6.27;;;7.40;99.90;;;;;;5115702;28;20482;-58
2022/11/26 04:09:35;;;;;;;14.30;5.70;;;7.60;99.90;;;;;;5115635;28;20442;-59
2022/11/26 04:12:02;;;;;;;12.00;5.33;;;7.60;99.90;;;;;;5115566;28;20551;-58
2022/11/26 04:14:29;;;;;;;9.07;5.27;;;7.60;99.90;;;;;;5115185;28;20534;-58
2022/11/26 04:16:57;;;;;;;7.47;5.70;;;7.50;99.90;;;;;;5115398;28;20885;-59
2022/11/26 04:19:24;;;;;;;9.90;5.63;;;7.50;99.90;;;;;;5115392;28;20489;-58
2022/11/26 04:21:52;;;;;;;13.73;5.50;;;7.50;99.90;;;;;;5074725;28;20460;-59
2022/11/26 04:24:19;;;;;;;9.77;5.10;;;7.50;99.90;;;;;;5074708;28;20855;-59
2022/11/26 04:26:47;;;;;;;7.30;5.17;;;7.60;99.90;;;;;;5074526;28;20578;-58
2022/11/26 04:29:15;;;;;;;10.80;5.70;;;7.60;99.90;;;;;;5074280;28;20507;-59
2022/11/26 04:31:42;;;;;;;8.90;5.20;;;7.70;99.90;;;;;;5074541;28;20472;-58
2022/11/26 04:34:09;;;;;;;7.60;4.77;;;7.70;99.90;;;;;;5074173;28;20998;-58
2022/11/26 04:36:38;;;;;;;8.10;5.40;;;7.70;99.90;;;;;;5074373;28;20511;-58
2022/11/26 04:39:05;;;;;;;8.77;5.40;;;7.50;99.90;;;;;;5074394;28;20436;-59
2022/11/26 04:41:32;;;;;;;7.27;5.37;;;7.60;99.90;;;;;;5073510;28;21021;-58
2022/11/26 04:44:01;;;;;;;8.47;5.53;;;7.60;99.90;;;;;;5074032;28;20483;-58
2022/11/26 04:46:28;;;;;;;10.50;5.40;;;7.60;99.90;;;;;;5073893;28;20518;-58
2022/11/26 04:48:55;;;;;;;9.80;6.30;;;7.50;99.90;;;;;;5073834;28;20486;-58
2022/11/26 04:51:22;;;;;;;9.70;4.80;;;7.50;99.90;;;;;;5074257;28;20842;-58
2022/11/26 04:53:50;;;;;;;9.57;6.00;;;7.50;99.90;;;;;;5074179;28;20444;-58
2022/11/26 04:56:17;;;;;;;11.43;5.87;;;7.40;99.90;;;;;;5073705;28;20499;-59
2022/11/26 04:58:44;;;;;;;10.83;5.20;;;7.20;99.90;;;;;;5074084;28;20444;-57
2022/11/26 05:01:13;;;;;;;10.30;6.40;;;7.20;99.90;;;;;;5074019;28;20480;-58
2022/11/26 05:03:40;;;;;;;13.63;5.87;;;7.30;99.90;;;;;;5074043;28;20855;-58
2022/11/26 05:06:07;;;;;;;7.30;5.57;;;7.30;99.90;;;;;;5073917;28;20468;-59
2022/11/26 05:08:35;;;;;;;11.90;6.10;;;7.20;99.90;;;;;;5073996;28;20499;-59
2022/11/26 05:11:02;;;;;;;11.13;5.50;;;7.20;99.90;;;;;;5073919;28;20487;-58
2022/11/26 05:13:29;;;;;;;7.23;5.03;;;7.20;99.90;;;;;;5073613;28;20484;-57
2022/11/26 05:15:56;;;;;;;8.40;4.67;;;7.20;99.90;;;;;;5073803;28;20472;-59
2022/11/26 05:18:25;;;;;;;9.27;4.70;;;7.20;99.90;;;;;;5073836;28;20444;-59
2022/11/26 05:20:52;;;;;;;10.70;4.67;;;7.20;99.90;;;;;;5097852;28;20510;-59
2022/11/26 05:23:20;;;;;;;11.40;4.93;;;7.10;99.90;;;;;;5114379;28;20525;-58
2022/11/26 05:25:47;;;;;;;10.93;4.23;;;7.10;99.90;;;;;;5113959;28;20988;-58
2022/11/26 05:28:14;;;;;;;12.60;6.07;;;7.00;99.90;;;;;;5114037;28;20453;-58
2022/11/26 05:30:42;;;;;;;10.63;4.90;;;6.80;99.90;;;;;;5113973;28;20445;-58
2022/11/26 05:33:09;;;;;;;8.40;4.80;;;6.80;99.90;;;;;;5113995;28;20481;-59
2022/11/26 05:35:38;;;;;;;10.10;4.97;;;6.80;99.90;;;;;;5113869;28;20466;-58
2022/11/26 05:38:06;;;;;;;7.30;5.40;;;6.70;99.90;;;;;;5113916;28;20537;-59
2022/11/26 05:40:33;;;;;;;6.33;4.40;;;6.70;99.90;;;;;;5114143;28;20549;-58
2022/11/26 05:43:00;;;;;;;9.57;5.40;;;6.50;99.90;;;;;;5113803;28;20484;-58
2022/11/26 05:45:28;;;;;;;10.80;5.73;;;6.50;99.90;;;;;;5114034;28;20501;-57
2022/11/26 05:47:55;;;;;;;8.47;4.77;;;6.40;99.90;;;;;;5113811;28;20474;-57
2022/11/26 05:50:22;;;;;;;9.40;5.43;;;6.30;99.90;;;;;;5113620;28;20454;-58
2022/11/26 05:52:51;;;;;;;6.80;5.07;;;6.40;99.90;;;;;;5113792;28;20533;-58
2022/11/26 05:55:18;;;;;;;9.00;5.03;;;6.30;99.90;;;;;;5117810;28;21006;-59
2022/11/26 05:57:45;;;;;;;10.33;4.93;;;6.30;99.90;;;;;;5118143;28;20478;-58
2022/11/26 06:00:14;;;;;;;13.27;5.20;;;6.30;99.90;;;;;;5118058;28;20473;-58
2022/11/26 06:02:42;;;;;;;11.33;5.00;;;6.30;99.90;;;;;;5117753;28;20984;-58
2022/11/26 06:05:09;;;;;;;9.60;5.60;;;6.30;99.90;;;;;;5117666;28;20474;-57
2022/11/26 06:07:37;;;;;;;9.90;5.10;;;6.20;99.90;;;;;;5118020;28;20515;-58
2022/11/26 06:10:07;;;;;;;6.30;5.70;;;6.20;99.90;;;;;;5117971;28;20495;-58
2022/11/26 06:12:35;;;;;;;7.87;5.10;;;6.20;99.90;;;;;;5117925;28;20461;-59
2022/11/26 06:15:02;;;;;;;8.13;5.30;;;6.20;99.90;;;;;;5117483;28;20466;-59
2022/11/26 06:17:29;;;;;;;9.03;6.00;;;6.10;99.90;;;;;;5117489;28;20542;-58
2022/11/26 06:19:57;;;;;;;9.83;5.70;;;6.10;99.90;;;;;;5117302;28;20485;-57
2022/11/26 06:22:24;;;;;;;5.93;5.33;;;6.20;99.90;;;;;;5117695;28;20561;-58
2022/11/26 06:24:51;;;;;;;10.93;6.10;;;6.10;99.90;;;;;;5117297;28;20867;-57
2022/11/26 06:27:19;;;;;;;13.67;5.90;;;6.10;99.90;;;;;;5117292;28;20442;-59
2022/11/26 06:29:47;;;;;;;8.33;5.37;;;6.00;99.90;;;;;;5118403;28;20448;-59
2022/11/26 06:32:14;;;;;;;7.17;4.60;;;6.00;99.90;;;;;;5117212;28;20478;-58
2022/11/26 06:34:41;;;;;;;10.60;5.10;;;6.00;99.90;;;;;;5117384;28;20541;-58
2022/11/26 06:37:08;;;;;;;12.07;5.87;;;6.10;99.90;;;;;;5117405;28;20478;-58
2022/11/26 06:39:35;;;;;;;10.50;6.43;;;6.10;99.90;;;;;;5117029;28;20839;-58
2022/11/26 06:42:03;;;;;;;8.00;5.47;;;5.90;99.90;;;;;;5116911;28;20549;-58
2022/11/26 06:44:31;;;;;;;12.23;6.27;;;5.90;99.90;;;;;;5117305;28;20536;-58
2022/11/26 06:46:59;;;;;;;7.10;5.17;;;6.00;99.90;;;;;;5117184;28;20558;-58
2022/11/26 06:49:26;;;;;;;9.53;6.37;;;6.00;99.90;;;;;;5116914;28;20486;-58
2022/11/26 06:51:53;;;;;;;12.73;5.83;;;5.90;99.90;;;;;;5117165;28;20522;-58
2022/11/26 06:54:21;;;;;;;5.70;4.80;;;5.90;99.90;;;;;;5117105;28;20910;-58
2022/11/26 06:56:48;;;;;;;7.57;5.10;;;5.90;99.90;;;;;;5117012;28;20540;-58
2022/11/26 06:59:15;;;;;;;6.90;5.90;;;5.80;99.90;;;;;;5116653;28;20449;-58
2022/11/26 07:01:44;;;;;;;9.30;7.03;;;5.80;99.90;;;;;;5116601;28;20514;-58
2022/11/26 07:04:12;;;;;;;9.90;5.87;;;5.80;99.90;;;;;;5116892;28;20451;-57
2022/11/26 07:06:40;;;;;;;11.10;5.90;;;5.80;99.90;;;;;;5115942;28;20499;-58
2022/11/26 07:09:09;;;;;;;16.17;6.90;;;5.80;99.90;;;;;;5116540;28;21040;-59
2022/11/26 07:11:37;;;;;;;10.47;8.30;;;5.70;99.90;;;;;;5116491;28;20804;-58
2022/11/26 07:14:05;;;;;;;9.53;7.93;;;5.80;99.90;;;;;;5116736;28;20489;-58
2022/11/26 07:16:33;;;;;;;11.40;10.10;;;5.80;99.90;;;;;;5116631;28;20509;-59
2022/11/26 07:19:02;;;;;;;21.00;11.60;;;5.80;99.90;;;;;;5116518;28;20478;-59
2022/11/26 07:21:30;;;;;;;9.27;7.43;;;5.80;99.90;;;;;;5116078;28;20573;-58
2022/11/26 07:23:58;;;;;;;10.00;8.50;;;5.80;99.90;;;;;;5116214;28;20525;-58
2022/11/26 07:26:25;;;;;;;8.70;7.43;;;5.80;99.90;;;;;;5116002;28;21016;-58
2022/11/26 07:28:53;;;;;;;13.07;7.40;;;5.80;99.90;;;;;;5116453;28;20483;-58
2022/11/26 07:31:22;;;;;;;13.70;8.50;;;5.90;99.90;;;;;;5116076;28;20443;-58
2022/11/26 07:33:50;;;;;;;6.83;6.23;;;6.00;99.90;;;;;;5116276;28;20525;-59
2022/11/26 07:36:20;;;;;;;11.20;7.33;;;6.10;99.90;;;;;;5115876;28;20513;-58
2022/11/26 07:38:48;;;;;;;9.50;6.97;;;6.10;99.90;;;;;;5117144;28;20454;-57
2022/11/26 07:41:18;;;;;;;8.33;6.77;;;6.30;99.90;;;;;;5116168;28;20521;-58
2022/11/26 07:43:45;;;;;;;8.37;5.70;;;6.40;99.90;;;;;;5115731;28;20549;-58
2022/11/26 07:46:14;;;;;;;10.10;6.03;;;6.30;99.90;;;;;;5115724;28;20561;-58
2022/11/26 07:48:41;;;;;;;11.70;7.57;;;6.40;99.90;;;;;;5115736;28;20534;-58
2022/11/26 07:51:16;;;;;;;10.50;8.30;;;6.50;99.90;;;;;;5115558;28;20824;-58
2022/11/26 07:53:45;;;;;;;7.53;6.23;;;6.50;99.90;;;;;;5116155;28;20855;-58
2022/11/26 07:56:12;;;;;;;12.90;7.67;;;6.60;99.90;;;;;;5116271;28;20561;-58
2022/11/26 07:58:40;;;;;;;11.57;7.83;;;6.70;99.90;;;;;;5115823;28;20538;-58
2022/11/26 08:01:08;;;;;;;16.40;7.23;;;6.70;99.90;;;;;;5115469;28;20438;-57
2022/11/26 08:03:39;;;;;;;10.37;7.00;;;6.80;99.90;;;;;;5115730;28;20573;-58
2022/11/26 08:06:08;;;;;;;15.13;7.37;;;6.80;99.90;;;;;;5115283;28;20982;-58
2022/11/26 08:08:36;;;;;;;9.00;7.33;;;6.80;99.90;;;;;;5115190;28;20961;-58
2022/11/26 08:11:10;;;;;;;8.50;6.93;;;6.90;99.90;;;;;;5117211;27;20537;-61
2022/11/26 08:13:37;;;;;;;10.37;6.90;;;7.00;99.90;;;;;;5135904;27;20795;-58
2022/11/26 08:16:05;;;;;;;9.27;6.73;;;7.00;99.90;;;;;;5135568;27;20875;-60
2022/11/26 08:18:32;;;;;;;9.03;6.50;;;7.10;99.90;;;;;;5135892;27;20553;-59
2022/11/26 08:21:00;;;;;;;9.10;7.53;;;7.20;99.90;;;;;;5135457;27;20528;-54
2022/11/26 08:23:30;;;;;;;9.90;6.37;;;7.20;99.90;;;;;;5133114;27;20560;-55
2022/11/26 08:25:57;;;;;;;10.03;7.40;;;7.20;99.90;;;;;;5114813;28;20494;-57
2022/11/26 08:28:26;;;;;;;9.30;7.67;;;7.30;99.90;;;;;;5114792;28;20492;-59
2022/11/26 08:31:02;;;;;;;9.63;6.77;;;7.30;99.90;;;;;;5114969;28;20446;-58
2022/11/26 08:33:29;;;;;;;14.13;7.27;;;7.30;99.90;;;;;;5114467;28;20434;-60
2022/11/26 08:35:56;;;;;;;11.47;7.17;;;7.30;99.90;;;;;;5121716;27;20505;-57
2022/11/26 08:38:24;;;;;;;8.63;7.80;;;7.20;99.90;;;;;;5135357;27;20442;-55
2022/11/26 08:40:53;;;;;;;8.33;6.23;;;7.20;99.90;;;;;;5135135;27;20976;-53
2022/11/26 08:43:20;;;;;;;16.03;7.73;;;7.30;99.90;;;;;;5135312;27;20466;-55
2022/11/26 08:45:54;;;;;;;8.83;7.90;;;7.40;99.90;;;;;;5125577;27;21063;-56
2022/11/26 08:48:21;;;;;;;7.80;7.03;;;7.50;99.90;;;;;;5114931;28;20450;-58
2022/11/26 08:50:49;;;;;;;10.73;6.90;;;7.60;99.90;;;;;;5113652;28;20458;-59
2022/11/26 08:53:18;;;;;;;8.90;6.90;;;7.60;99.90;;;;;;5141046;27;20501;-59
2022/11/26 08:55:49;;;;;;;13.30;8.30;;;7.50;99.90;;;;;;5119756;27;20478;-56
2022/11/26 08:58:22;;;;;;;8.33;7.10;;;7.30;99.90;;;;;;5128422;27;20536;-56
2022/11/26 09:00:56;;;;;;;8.13;7.33;;;7.20;99.90;;;;;;5126572;27;20441;-57
2022/11/26 09:03:44;;;;;;;7.40;6.00;;;7.20;99.90;;;;;;5132561;27;20483;-57
2022/11/26 09:06:12;;;;;;;11.50;6.80;;;7.20;99.90;;;;;;5122083;27;20558;-55
2022/11/26 09:09:11;;;;;;;6.70;5.40;;;7.20;99.90;;;;;;5121052;27;20573;-59
2022/11/26 09:11:45;;;;;;;8.13;7.07;;;7.30;99.90;;;;;;5132141;27;20936;-59
2022/11/26 09:14:21;;;;;;;10.80;7.20;;;7.50;99.90;;;;;;5137377;27;20436;-59
2022/11/26 09:16:53;;;;;;;12.20;7.13;;;7.70;99.90;;;;;;5125746;27;20499;-56
2022/11/26 09:19:44;;;;;;;10.90;7.33;;;7.80;99.90;;;;;;5124545;27;20457;-58
2022/11/26 09:22:26;;;;;;;7.80;7.00;;;7.80;99.90;;;;;;5121695;27;20810;-57
2022/11/26 09:25:05;;;;;;;11.10;7.03;;;7.70;99.90;;;;;;5126921;27;20931;-56
2022/11/26 09:27:39;;;;;;;12.43;6.90;;;7.70;99.90;;;;;;5122497;27;20421;-57
2022/11/26 09:30:15;;;;;;;9.60;7.30;;;7.80;99.90;;;;;;5131605;27;20532;-58
2022/11/26 09:32:58;;;;;;;7.67;5.77;;;7.80;99.90;;;;;;5128646;27;20541;-58
2022/11/26 09:35:45;;;;;;;8.30;6.50;;;7.80;99.90;;;;;;5125046;27;20482;-57
2022/11/26 09:38:12;;;;;;;9.30;6.07;;;7.80;99.90;;;;;;5125951;27;20490;-55
2022/11/26 09:40:49;;;;;;;7.63;6.43;;;7.80;99.90;;;;;;5127543;27;20462;-55
2022/11/26 09:43:25;;;;;;;11.33;6.70;;;8.00;99.90;;;;;;5125890;27;20533;-54
2022/11/26 09:45:58;;;;;;;8.23;6.83;;;8.10;99.90;;;;;;5124775;27;20523;-57
2022/11/26 09:48:27;;;;;;;8.00;5.90;;;8.30;99.90;;;;;;5129257;27;20444;-56
2022/11/26 09:51:03;;;;;;;9.67;6.40;;;8.30;99.90;;;;;;5121603;27;20466;-52
2022/11/26 09:53:35;;;;;;;14.37;6.70;;;8.30;99.90;;;;;;5133476;27;20483;-54
2022/11/26 09:56:02;;;;;;;7.33;5.23;;;8.30;99.90;;;;;;5125902;27;20485;-55
